createdAt,value
2019-05-30T00:00:27.718Z,9.98
2019-05-30T00:02:54.041Z,10.40
2019-05-30T00:05:20.881Z,10.10
2019-05-30T00:07:47.081Z,9.70
2019-05-30T00:10:13.662Z,10.28
2019-05-30T00:12:39.822Z,9.83
2019-05-30T00:15:06.564Z,10.20
2019-05-30T00:17:33.100Z,10.43
2019-05-30T00:19:59.285Z,9.55
2019-05-30T00:22:26.473Z,10.90
2019-05-30T00:24:52.679Z,11.10
2019-05-30T00:27:18.928Z,10.75
2019-05-30T00:29:45.097Z,11.05
2019-05-30T00:32:11.381Z,10.53
2019-05-30T00:34:37.556Z,11.18
2019-05-30T00:37:04.129Z,11.20
2019-05-30T00:39:30.600Z,10.95
2019-05-30T00:41:57.781Z,10.72
2019-05-30T00:44:24.170Z,10.65
2019-05-30T00:46:50.415Z,11.10
2019-05-30T00:49:16.655Z,11.48
2019-05-30T00:51:42.833Z,10.50
2019-05-30T00:54:09.312Z,10.08
2019-05-30T00:56:35.490Z,10.72
2019-05-30T00:59:02.742Z,10.28
2019-05-30T01:01:29.074Z,10.20
2019-05-30T01:03:56.734Z,10.20
2019-05-30T01:06:23.146Z,10.50
2019-05-30T01:08:49.568Z,10.40
2019-05-30T01:11:15.982Z,10.75
2019-05-30T01:13:42.148Z,10.58
2019-05-30T01:16:08.575Z,11.20
2019-05-30T01:18:34.759Z,10.13
2019-05-30T01:21:01.311Z,9.60
2019-05-30T01:23:27.556Z,9.78
2019-05-30T01:25:53.756Z,10.05
2019-05-30T01:28:19.916Z,9.33
2019-05-30T01:30:59.119Z,8.80
2019-05-30T01:33:14.262Z,9.53
2019-05-30T01:35:40.427Z,9.28
2019-05-30T01:38:07.948Z,9.30
2019-05-30T01:40:34.369Z,8.23
2019-05-30T01:43:01.984Z,9.70
2019-05-30T01:45:28.361Z,8.60
2019-05-30T01:47:54.525Z,8.30
2019-05-30T01:50:21.108Z,7.70
2019-05-30T01:52:47.268Z,9.35
2019-05-30T01:55:14.352Z,9.13
2019-05-30T01:57:40.542Z,8.58
2019-05-30T02:00:20.225Z,10.18
2019-05-30T02:02:39.281Z,7.40
2019-05-30T02:05:07.506Z,9.00
2019-05-30T02:07:33.734Z,8.60
2019-05-30T02:10:01.090Z,8.78
2019-05-30T02:12:27.457Z,9.68
2019-05-30T02:14:53.639Z,8.88
2019-05-30T02:17:19.838Z,9.93
2019-05-30T02:19:46.001Z,9.38
2019-05-30T02:22:12.440Z,9.23
2019-05-30T02:24:38.614Z,9.13
2019-05-30T02:27:04.817Z,8.50
2019-05-30T02:29:52.016Z,8.13
2019-05-30T02:32:18.176Z,7.75
2019-05-30T02:34:44.417Z,7.83
2019-05-30T02:37:12.680Z,8.28
2019-05-30T02:39:39.708Z,9.10
2019-05-30T02:42:07.299Z,8.30
2019-05-30T02:44:33.837Z,10.32
2019-05-30T02:47:01.445Z,10.05
2019-05-30T02:49:28.117Z,10.25
2019-05-30T02:51:54.274Z,10.48
2019-05-30T02:54:20.561Z,10.40
2019-05-30T02:56:46.964Z,9.33
2019-05-30T02:59:13.900Z,9.50
2019-05-30T03:01:59.287Z,9.45
2019-05-30T03:04:10.199Z,9.73
2019-05-30T03:06:36.482Z,9.10
2019-05-30T03:09:06.228Z,9.03
2019-05-30T03:11:33.900Z,9.00
2019-05-30T03:14:02.127Z,9.33
2019-05-30T03:16:28.661Z,8.48
2019-05-30T03:18:55.028Z,8.28
2019-05-30T03:21:21.227Z,8.40
2019-05-30T03:23:47.415Z,8.40
2019-05-30T03:26:15.697Z,8.60
2019-05-30T03:28:41.673Z,8.48
2019-05-30T03:31:20.360Z,9.38
2019-05-30T03:33:41.408Z,8.98
2019-05-30T03:36:09.937Z,8.28
2019-05-30T03:38:32.730Z,10.40
2019-05-30T03:40:58.936Z,12.23
2019-05-30T03:43:25.409Z,12.65
2019-05-30T03:45:52.194Z,13.10
2019-05-30T03:48:21.482Z,12.98
2019-05-30T03:50:51.192Z,13.60
2019-05-30T03:53:17.769Z,13.40
2019-05-30T03:55:47.760Z,14.05
2019-05-30T03:58:32.476Z,13.72
2019-05-30T04:01:02.498Z,14.33
2019-05-30T04:03:59.975Z,13.83
2019-05-30T04:06:29.955Z,13.62
2019-05-30T04:08:59.952Z,13.83
2019-05-30T04:11:31.032Z,14.47
2019-05-30T04:14:01.123Z,13.35
2019-05-30T04:16:27.279Z,14.07
2019-05-30T04:18:53.450Z,13.80
2019-05-30T04:21:21.691Z,13.62
2019-05-30T04:23:48.028Z,12.98
2019-05-30T04:26:15.723Z,12.60
2019-05-30T04:28:42.297Z,13.10
2019-05-30T04:31:09.878Z,13.08
2019-05-30T04:33:36.369Z,13.48
2019-05-30T04:36:02.541Z,12.70
2019-05-30T04:38:28.771Z,12.70
2019-05-30T04:40:54.937Z,11.80
2019-05-30T04:43:22.380Z,11.20
2019-05-30T04:45:48.634Z,11.12
2019-05-30T04:48:16.189Z,10.75
2019-05-30T04:50:42.532Z,10.30
2019-05-30T04:53:10.176Z,10.50
2019-05-30T04:55:36.793Z,10.15
2019-05-30T04:58:02.996Z,11.03
2019-05-30T05:00:29.587Z,10.88
2019-05-30T05:02:55.752Z,10.20
2019-05-30T05:05:26.540Z,10.88
2019-05-30T05:07:50.574Z,10.30
2019-05-30T05:10:18.266Z,9.85
2019-05-30T05:12:44.729Z,8.85
2019-05-30T05:15:12.379Z,9.38
2019-05-30T05:17:38.993Z,10.03
2019-05-30T05:20:06.074Z,10.23
2019-05-30T05:22:32.561Z,9.43
2019-05-30T05:24:58.728Z,8.98
2019-05-30T05:27:24.941Z,9.08
2019-05-30T05:29:51.100Z,9.18
2019-05-30T05:32:18.223Z,8.28
2019-05-30T05:34:44.552Z,8.78
2019-05-30T05:37:10.723Z,8.10
2019-05-30T05:39:36.896Z,8.20
2019-05-30T05:42:03.123Z,8.68
2019-05-30T05:44:29.331Z,8.33
2019-05-30T05:46:55.504Z,7.87
2019-05-30T05:49:22.618Z,7.78
2019-05-30T05:51:48.961Z,7.22
2019-05-30T05:54:15.176Z,7.60
2019-05-30T05:56:41.477Z,8.00
2019-05-30T05:59:07.734Z,7.20
2019-05-30T06:01:34.050Z,7.58
2019-05-30T06:04:12.751Z,7.62
2019-05-30T06:06:31.515Z,8.08
2019-05-30T06:08:57.537Z,7.60
2019-05-30T06:11:24.638Z,7.83
2019-05-30T06:13:51.105Z,7.58
2019-05-30T06:16:17.815Z,7.05
2019-05-30T06:18:44.042Z,7.40
2019-05-30T06:21:10.241Z,7.62
2019-05-30T06:23:36.432Z,6.75
2019-05-30T06:26:02.909Z,6.80
2019-05-30T06:28:29.117Z,6.95
2019-05-30T06:30:58.769Z,7.00
2019-05-30T06:33:23.810Z,7.12
2019-05-30T06:35:51.189Z,7.12
2019-05-30T06:38:17.354Z,6.87
2019-05-30T06:40:43.574Z,6.78
2019-05-30T06:43:09.741Z,7.03
2019-05-30T06:45:35.909Z,7.53
2019-05-30T06:48:02.117Z,6.28
2019-05-30T06:50:29.169Z,6.75
2019-05-30T06:52:55.514Z,6.65
2019-05-30T06:55:23.007Z,6.40
2019-05-30T06:57:49.453Z,7.25
2019-05-30T07:00:16.021Z,6.50
2019-05-30T07:02:42.541Z,6.97
2019-05-30T07:05:09.887Z,5.92
2019-05-30T07:07:36.476Z,5.78
2019-05-30T07:10:06.435Z,6.90
2019-05-30T07:12:33.237Z,6.40
2019-05-30T07:14:59.600Z,6.70
2019-05-30T07:17:25.793Z,6.67
2019-05-30T07:19:51.975Z,5.58
2019-05-30T07:22:18.167Z,5.33
2019-05-30T07:24:44.330Z,6.03
2019-05-30T07:27:10.558Z,6.00
2019-05-30T07:29:36.730Z,6.50
2019-05-30T07:32:03.301Z,6.08
2019-05-30T07:34:30.192Z,5.42
2019-05-30T07:36:56.592Z,5.70
2019-05-30T07:39:22.773Z,5.70
2019-05-30T07:42:05.234Z,5.40
2019-05-30T07:44:17.065Z,4.87
2019-05-30T07:46:43.230Z,4.37
2019-05-30T07:49:09.462Z,4.72
2019-05-30T07:51:35.668Z,4.30
2019-05-30T07:54:02.044Z,5.42
2019-05-30T07:56:28.927Z,4.87
2019-05-30T07:58:55.365Z,4.35
2019-05-30T08:01:21.738Z,4.80
2019-05-30T08:03:47.905Z,4.40
2019-05-30T08:06:14.211Z,4.20
2019-05-30T08:08:40.403Z,4.05
2019-05-30T08:11:09.791Z,4.35
2019-05-30T08:13:35.233Z,4.20
2019-05-30T08:16:01.700Z,4.33
2019-05-30T08:18:27.992Z,3.60
2019-05-30T08:20:54.179Z,4.20
2019-05-30T08:23:20.357Z,4.10
2019-05-30T08:25:46.551Z,3.92
2019-05-30T08:28:12.909Z,3.77
2019-05-30T08:30:39.479Z,2.98
2019-05-30T08:33:05.673Z,3.50
2019-05-30T08:35:46.720Z,2.87
2019-05-30T08:38:00.057Z,4.12
2019-05-30T08:40:26.225Z,4.12
2019-05-30T08:42:52.452Z,4.30
2019-05-30T08:45:20.887Z,3.75
2019-05-30T08:47:47.365Z,3.87
2019-05-30T08:50:13.897Z,4.03
2019-05-30T08:52:40.947Z,4.30
2019-05-30T08:55:09.154Z,3.87
2019-05-30T08:57:36.530Z,3.87
2019-05-30T09:00:05.620Z,4.08
2019-05-30T09:02:57.985Z,4.00
2019-05-30T09:05:28.087Z,3.72
2019-05-30T09:07:54.265Z,3.77
2019-05-30T09:10:21.246Z,4.25
2019-05-30T09:12:49.604Z,3.42
2019-05-30T09:15:16.009Z,3.25
2019-05-30T09:17:42.658Z,3.33
2019-05-30T09:20:10.020Z,3.22
2019-05-30T09:22:38.462Z,3.25
2019-05-30T09:25:07.840Z,3.55
2019-05-30T09:27:34.060Z,3.33
2019-05-30T09:30:00.507Z,3.47
2019-05-30T09:32:26.724Z,3.08
2019-05-30T09:34:52.940Z,2.58
2019-05-30T09:37:19.093Z,2.65
2019-05-30T09:39:45.595Z,2.80
2019-05-30T09:42:11.858Z,2.30
2019-05-30T09:44:38.074Z,2.50
2019-05-30T09:47:04.320Z,2.58
2019-05-30T09:49:30.648Z,2.62
2019-05-30T09:51:56.842Z,3.00
2019-05-30T09:54:23.045Z,2.27
2019-05-30T09:56:50.659Z,2.72
2019-05-30T09:59:17.416Z,2.60
2019-05-30T10:01:44.329Z,2.55
2019-05-30T10:04:10.588Z,2.72
2019-05-30T10:06:36.978Z,3.35
2019-05-30T10:09:06.594Z,2.95
2019-05-30T10:11:32.874Z,3.00
2019-05-30T10:13:59.071Z,2.98
2019-05-30T10:16:25.313Z,3.40
2019-05-30T10:18:52.707Z,2.85
2019-05-30T10:21:19.284Z,2.83
2019-05-30T10:23:46.184Z,2.60
2019-05-30T10:26:13.949Z,3.15
2019-05-30T10:31:01.309Z,3.10
2019-05-30T10:33:27.495Z,4.25
2019-05-30T10:35:53.682Z,3.12
2019-05-30T10:38:20.249Z,3.40
2019-05-30T10:40:47.430Z,3.47
2019-05-30T10:43:14.689Z,3.40
2019-05-30T10:45:40.885Z,3.08
2019-05-30T10:48:07.553Z,3.20
2019-05-30T10:50:33.788Z,2.58
2019-05-30T10:52:59.996Z,2.90
2019-05-30T10:55:26.685Z,2.42
2019-05-30T10:57:56.270Z,3.15
2019-05-30T11:00:24.800Z,2.75
2019-05-30T11:02:51.285Z,3.15
2019-05-30T11:05:19.045Z,2.87
2019-05-30T11:08:06.930Z,2.77
2019-05-30T11:10:38.107Z,2.85
2019-05-30T11:13:06.893Z,2.90
2019-05-30T11:15:33.387Z,2.75
2019-05-30T11:18:00.674Z,2.72
2019-05-30T11:20:26.984Z,2.60
2019-05-30T11:22:54.503Z,3.22
2019-05-30T11:25:21.130Z,2.35
2019-05-30T11:27:48.523Z,2.42
2019-05-30T11:30:15.622Z,2.87
2019-05-30T11:32:41.917Z,2.85
2019-05-30T11:35:11.501Z,2.20
2019-05-30T11:37:38.126Z,2.20
2019-05-30T11:40:06.134Z,2.15
2019-05-30T11:42:32.434Z,2.52
2019-05-30T11:44:59.868Z,1.85
2019-05-30T11:47:26.298Z,2.35
2019-05-30T11:49:53.593Z,2.12
2019-05-30T11:52:19.995Z,1.80
2019-05-30T11:54:46.185Z,2.00
2019-05-30T11:57:12.374Z,1.82
2019-05-30T11:59:38.823Z,4.25
2019-05-30T12:02:05.030Z,1.90
2019-05-30T12:04:31.235Z,2.00
2019-05-30T12:06:57.409Z,1.85
2019-05-30T12:09:23.839Z,1.32
2019-05-30T12:11:50.990Z,1.60
2019-05-30T12:14:21.137Z,1.70
2019-05-30T12:16:45.719Z,1.57
2019-05-30T12:19:12.073Z,2.10
2019-05-30T12:21:38.423Z,1.80
2019-05-30T12:24:05.103Z,2.20
2019-05-30T12:26:33.847Z,1.70
2019-05-30T12:29:00.159Z,1.67
2019-05-30T12:31:26.525Z,1.60
2019-05-30T12:33:54.081Z,1.70
2019-05-30T12:36:21.790Z,1.82
2019-05-30T12:38:47.964Z,1.62
2019-05-30T12:41:14.271Z,1.62
2019-05-30T12:43:40.571Z,1.70
2019-05-30T12:46:06.773Z,1.40
2019-05-30T12:48:32.937Z,1.40
2019-05-30T12:50:59.402Z,1.90
2019-05-30T12:53:25.623Z,1.92
2019-05-30T12:55:51.803Z,1.30
2019-05-30T12:58:18.065Z,1.90
2019-05-30T13:00:44.381Z,1.90
2019-05-30T13:03:10.565Z,1.25
2019-05-30T13:05:36.832Z,1.50
2019-05-30T13:08:17.690Z,1.40
2019-05-30T13:10:31.200Z,1.85
2019-05-30T13:12:57.599Z,1.55
2019-05-30T13:15:23.956Z,1.60
2019-05-30T13:17:50.344Z,1.40
2019-05-30T13:20:17.121Z,1.65
2019-05-30T13:22:43.355Z,1.57
2019-05-30T13:25:12.921Z,1.67
2019-05-30T13:27:39.093Z,1.10
2019-05-30T13:30:06.250Z,1.45
2019-05-30T13:32:32.466Z,1.45
2019-05-30T13:34:59.194Z,1.52
2019-05-30T13:37:26.761Z,1.30
2019-05-30T13:39:52.929Z,1.50
2019-05-30T13:42:19.157Z,1.50
2019-05-30T13:44:46.437Z,1.50
2019-05-30T13:47:12.662Z,1.40
2019-05-30T13:49:39.042Z,1.80
2019-05-30T13:52:05.340Z,1.50
2019-05-30T13:54:31.534Z,1.32
2019-05-30T13:56:57.702Z,1.50
2019-05-30T13:59:23.883Z,1.87
2019-05-30T14:01:50.047Z,1.30
2019-05-30T14:04:16.228Z,1.70
2019-05-30T14:06:42.419Z,1.40
2019-05-30T14:09:08.677Z,1.30
2019-05-30T14:11:35.161Z,1.55
2019-05-30T14:14:02.766Z,1.50
2019-05-30T14:16:29.020Z,1.55
2019-05-30T14:18:55.209Z,1.40
2019-05-30T14:21:21.408Z,1.20
2019-05-30T14:23:47.593Z,1.60
2019-05-30T14:26:14.093Z,1.40
2019-05-30T14:28:40.432Z,1.27
2019-05-30T14:31:06.828Z,1.15
2019-05-30T14:33:33.185Z,1.60
2019-05-30T14:35:59.359Z,1.72
2019-05-30T14:38:25.561Z,1.47
2019-05-30T14:40:51.733Z,1.60
2019-05-30T14:43:17.989Z,1.90
2019-05-30T14:45:44.169Z,1.70
2019-05-30T14:48:10.587Z,1.60
2019-05-30T14:50:36.909Z,1.50
2019-05-30T14:53:04.495Z,1.70
2019-05-30T14:55:30.893Z,1.57
2019-05-30T14:57:58.213Z,1.35
2019-05-30T15:00:24.969Z,1.72
2019-05-30T15:02:51.211Z,1.55
2019-05-30T15:05:17.962Z,1.62
2019-05-30T15:07:44.186Z,1.62
2019-05-30T15:10:12.612Z,1.42
2019-05-30T15:12:39.041Z,1.70
2019-05-30T15:15:07.925Z,1.95
2019-05-30T15:17:34.820Z,1.80
2019-05-30T15:20:03.251Z,1.57
2019-05-30T15:22:29.453Z,1.65
2019-05-30T15:24:55.637Z,1.50
2019-05-30T15:27:21.813Z,1.70
2019-05-30T15:29:48.008Z,1.60
2019-05-30T15:32:14.488Z,1.80
2019-05-30T15:34:40.860Z,1.37
2019-05-30T15:37:07.029Z,1.72
2019-05-30T15:39:33.269Z,1.42
2019-05-30T15:41:59.505Z,1.32
2019-05-30T15:44:25.668Z,1.65
2019-05-30T15:46:51.845Z,1.70
2019-05-30T15:49:18.450Z,1.30
2019-05-30T15:51:44.690Z,1.40
2019-05-30T15:54:10.889Z,1.40
2019-05-30T15:56:37.077Z,1.50
2019-05-30T15:59:03.244Z,1.27
2019-05-30T16:01:29.405Z,1.32
2019-05-30T16:03:55.582Z,1.60
2019-05-30T16:06:22.749Z,1.65
2019-05-30T16:08:48.958Z,1.57
2019-05-30T16:11:15.227Z,1.47
2019-05-30T16:13:41.417Z,1.67
2019-05-30T16:16:07.574Z,1.65
2019-05-30T16:18:33.962Z,1.50
2019-05-30T16:21:00.125Z,1.65
2019-05-30T16:23:27.754Z,1.98
2019-05-30T16:25:55.892Z,1.45
2019-05-30T16:28:22.094Z,1.45
2019-05-30T16:30:48.258Z,1.55
2019-05-30T16:33:14.493Z,1.57
2019-05-30T16:35:40.676Z,1.72
2019-05-30T16:38:06.857Z,2.00
2019-05-30T16:40:33.038Z,2.05
2019-05-30T16:42:59.213Z,1.77
2019-05-30T16:45:25.835Z,1.67
2019-05-30T16:47:52.989Z,1.70
2019-05-30T16:50:22.769Z,1.70
2019-05-30T16:52:49.298Z,1.57
2019-05-30T16:55:15.789Z,1.52
2019-05-30T16:57:41.972Z,1.65
2019-05-30T17:00:12.113Z,1.80
2019-05-30T17:02:38.432Z,1.52
2019-05-30T17:05:06.699Z,2.47
2019-05-30T17:07:33.075Z,1.70
2019-05-30T17:09:59.452Z,1.47
2019-05-30T17:12:25.807Z,1.70
2019-05-30T17:14:52.203Z,1.77
2019-05-30T17:17:19.965Z,2.50
2019-05-30T17:19:47.431Z,1.87
2019-05-30T17:22:13.634Z,1.60
2019-05-30T17:24:39.881Z,1.65
2019-05-30T17:27:06.131Z,1.80
2019-05-30T17:29:32.300Z,1.72
2019-05-30T17:31:58.504Z,1.75
2019-05-30T17:34:26.093Z,1.87
2019-05-30T17:36:52.400Z,1.80
2019-05-30T17:39:18.905Z,1.37
2019-05-30T17:41:45.253Z,1.80
2019-05-30T17:44:11.447Z,1.60
2019-05-30T17:46:37.653Z,1.35
2019-05-30T17:49:04.126Z,1.42
2019-05-30T17:51:30.304Z,1.50
2019-05-30T17:53:56.483Z,1.75
2019-05-30T17:56:23.886Z,1.40
2019-05-30T17:58:50.324Z,2.00
2019-05-30T18:01:16.505Z,1.70
2019-05-30T18:03:42.733Z,1.70
2019-05-30T18:06:08.929Z,1.62
2019-05-30T18:08:35.113Z,1.95
2019-05-30T18:11:01.281Z,2.08
2019-05-30T18:13:27.464Z,1.95
2019-05-30T18:15:53.621Z,2.20
2019-05-30T18:18:21.088Z,2.52
2019-05-30T18:20:48.643Z,2.12
2019-05-30T18:23:15.115Z,2.05
2019-05-30T18:25:41.338Z,1.95
2019-05-30T18:28:07.639Z,1.85
2019-05-30T18:30:41.992Z,1.90
2019-05-30T18:33:08.886Z,1.52
2019-05-30T18:35:35.084Z,1.30
2019-05-30T18:38:02.063Z,1.70
2019-05-30T18:40:31.263Z,1.60
2019-05-30T18:42:58.451Z,1.70
2019-05-30T18:45:38.922Z,1.82
2019-05-30T18:48:05.985Z,1.62
2019-05-30T18:50:33.269Z,2.02
2019-05-30T18:52:59.764Z,2.00
2019-05-30T18:55:26.559Z,1.70
2019-05-30T18:57:52.965Z,1.80
2019-05-30T19:00:19.223Z,2.30
2019-05-30T19:02:45.397Z,2.05
2019-05-30T19:05:11.853Z,2.72
2019-05-30T19:07:38.032Z,2.55
2019-05-30T19:10:04.421Z,3.33
2019-05-30T19:12:30.684Z,5.10
2019-05-30T19:14:56.865Z,3.95
2019-05-30T19:17:23.057Z,5.10
2019-05-30T19:19:51.345Z,5.65
2019-05-30T19:22:17.491Z,8.25
2019-05-30T19:24:43.729Z,6.45
2019-05-30T19:27:09.939Z,6.55
2019-05-30T19:29:38.110Z,8.88
2019-05-30T19:32:04.409Z,3.37
2019-05-30T19:34:30.770Z,4.67
2019-05-30T19:36:57.072Z,6.97
2019-05-30T19:39:23.245Z,8.35
2019-05-30T19:41:56.643Z,5.65
2019-05-30T19:44:17.543Z,5.00
2019-05-30T19:46:43.737Z,5.40
2019-05-30T19:49:09.883Z,4.60
2019-05-30T19:51:37.175Z,4.90
2019-05-30T19:54:03.438Z,6.00
2019-05-30T19:56:29.786Z,4.72
2019-05-30T19:58:55.940Z,10.08
2019-05-30T20:01:22.141Z,5.17
2019-05-30T20:03:48.299Z,3.85
2019-05-30T20:06:14.486Z,3.87
2019-05-30T20:08:52.839Z,3.52
2019-05-30T20:11:08.753Z,2.85
2019-05-30T20:13:35.078Z,3.45
2019-05-30T20:16:01.302Z,3.33
2019-05-30T20:18:27.482Z,3.83
2019-05-30T20:20:57.656Z,3.75
2019-05-30T20:23:22.845Z,3.75
2019-05-30T20:25:49.047Z,3.45
2019-05-30T20:28:15.284Z,3.70
2019-05-30T20:30:41.668Z,3.83
2019-05-30T20:33:07.856Z,3.85
2019-05-30T20:35:36.070Z,4.03
2019-05-30T20:38:02.132Z,3.62
2019-05-30T20:40:28.305Z,4.00
2019-05-30T20:42:54.483Z,3.95
2019-05-30T20:45:21.154Z,3.90
2019-05-30T20:47:47.574Z,3.45
2019-05-30T20:50:15.702Z,4.10
2019-05-30T20:52:45.416Z,4.15
2019-05-30T20:55:12.152Z,4.12
2019-05-30T20:57:38.488Z,3.67
2019-05-30T21:00:09.101Z,4.00
2019-05-30T21:02:36.561Z,3.87
2019-05-30T21:05:05.242Z,3.37
2019-05-30T21:07:33.194Z,3.40
2019-05-30T21:10:00.441Z,3.35
2019-05-30T21:12:37.693Z,3.83
2019-05-30T21:15:00.181Z,3.67
2019-05-30T21:17:26.618Z,3.27
2019-05-30T21:19:52.944Z,3.20
2019-05-30T21:22:19.614Z,3.60
2019-05-30T21:24:46.997Z,3.77
2019-05-30T21:27:13.413Z,3.70
2019-05-30T21:29:41.016Z,3.65
2019-05-30T21:32:07.326Z,3.90
2019-05-30T21:34:33.486Z,3.90
2019-05-30T21:36:59.644Z,3.60
2019-05-30T21:39:25.840Z,3.90
2019-05-30T21:41:52.069Z,3.47
2019-05-30T21:44:18.247Z,3.75
2019-05-30T21:46:44.823Z,3.72
2019-05-30T21:49:11.148Z,3.77
2019-05-30T21:51:37.317Z,3.70
2019-05-30T21:54:03.501Z,3.60
2019-05-30T21:56:29.665Z,3.75
2019-05-30T21:58:55.890Z,3.27
2019-05-30T22:01:26.860Z,3.87
2019-05-30T22:03:53.060Z,3.62
2019-05-30T22:06:19.654Z,3.95
2019-05-30T22:08:47.114Z,3.83
2019-05-30T22:11:13.449Z,3.47
2019-05-30T22:13:39.864Z,4.10
2019-05-30T22:16:06.257Z,3.35
2019-05-30T22:18:32.448Z,4.17
2019-05-30T22:20:58.790Z,4.17
2019-05-30T22:23:24.980Z,3.70
2019-05-30T22:25:51.192Z,3.95
2019-05-30T22:28:17.369Z,3.92
2019-05-30T22:30:44.528Z,3.58
2019-05-30T22:33:10.712Z,3.58
2019-05-30T22:35:36.865Z,3.67
2019-05-30T22:38:03.050Z,3.70
2019-05-30T22:40:29.225Z,3.40
2019-05-30T22:42:56.448Z,3.52
2019-05-30T22:45:22.788Z,3.50
2019-05-30T22:47:48.995Z,3.65
2019-05-30T22:50:15.190Z,3.45
2019-05-30T22:52:41.384Z,3.22
2019-05-30T22:55:07.890Z,3.20
2019-05-30T22:57:34.048Z,3.45
2019-05-30T23:00:01.530Z,2.92
2019-05-30T23:02:27.699Z,3.20
2019-05-30T23:04:54.303Z,3.02
2019-05-30T23:07:20.648Z,3.20
2019-05-30T23:09:47.528Z,2.95
2019-05-30T23:12:13.784Z,2.98
2019-05-30T23:14:39.966Z,3.30
2019-05-30T23:17:06.140Z,3.35
2019-05-30T23:19:32.299Z,2.98
2019-05-30T23:21:58.486Z,2.83
2019-05-30T23:24:24.643Z,3.08
2019-05-30T23:26:51.722Z,3.10
2019-05-30T23:29:18.140Z,3.10
2019-05-30T23:31:44.303Z,3.10
2019-05-30T23:34:10.513Z,3.00
2019-05-30T23:36:36.667Z,2.95
2019-05-30T23:39:05.105Z,2.67
2019-05-30T23:41:31.991Z,3.37
2019-05-30T23:44:10.649Z,2.80
2019-05-30T23:46:26.281Z,3.15
2019-05-30T23:48:53.527Z,3.22
2019-05-30T23:51:19.942Z,2.85
2019-05-30T23:53:46.326Z,2.70
2019-05-30T23:56:12.669Z,2.85
2019-05-30T23:58:38.848Z,3.20
